createdAt,value
2023-01-28T00:01:29.363Z,90.81
2023-01-28T00:03:56.693Z,91.08
2023-01-28T00:06:23.917Z,90.68
2023-01-28T00:08:51.268Z,90.79
2023-01-28T00:11:18.515Z,91.05
2023-01-28T00:13:45.802Z,90.45
2023-01-28T00:16:13.056Z,90.80
2023-01-28T00:18:40.451Z,90.40
2023-01-28T00:21:11.505Z,90.22
2023-01-28T00:23:40.487Z,89.93
2023-01-28T00:26:11.728Z,90.39
2023-01-28T00:28:42.690Z,90.40
2023-01-28T00:31:17.676Z,90.28
2023-01-28T00:33:46.180Z,89.62
2023-01-28T00:36:14.339Z,90.59
2023-01-28T00:38:43.097Z,89.81
2023-01-28T00:41:13.517Z,90.00
2023-01-28T00:43:42.097Z,89.79
2023-01-28T00:46:11.644Z,89.56
2023-01-28T00:48:40.433Z,89.59
2023-01-28T00:51:08.932Z,89.63
2023-01-28T00:53:38.494Z,89.48
2023-01-28T00:56:08.927Z,89.15
2023-01-28T00:58:36.128Z,89.20
2023-01-28T01:01:09.504Z,88.89
2023-01-28T01:03:36.927Z,89.09
2023-01-28T01:06:05.227Z,89.20
2023-01-28T01:08:35.760Z,88.83
2023-01-28T01:11:04.884Z,89.17
2023-01-28T01:13:34.880Z,89.11
2023-01-28T01:16:16.556Z,89.21
2023-01-28T01:18:43.998Z,88.75
2023-01-28T01:21:14.742Z,88.80
2023-01-28T01:23:42.584Z,89.28
2023-01-28T01:26:09.933Z,89.16
2023-01-28T01:28:37.805Z,89.06
2023-01-28T01:31:14.766Z,88.98
2023-01-28T01:33:43.054Z,89.21
2023-01-28T01:36:12.253Z,89.11
2023-01-28T01:38:40.996Z,88.93
2023-01-28T01:41:15.470Z,88.98
2023-01-28T01:43:50.762Z,89.04
2023-01-28T01:46:24.415Z,89.02
2023-01-28T01:48:53.421Z,89.09
2023-01-28T01:51:29.779Z,89.15
2023-01-28T01:53:59.143Z,89.09
2023-01-28T01:56:33.111Z,88.98
2023-01-28T01:59:01.509Z,88.78
2023-01-28T02:01:32.169Z,89.15
2023-01-28T02:04:06.171Z,88.71
2023-01-28T02:06:36.167Z,88.75
2023-01-28T02:09:03.538Z,88.89
2023-01-28T02:11:34.091Z,88.80
2023-01-28T02:14:04.934Z,88.94
2023-01-28T02:16:33.209Z,89.23
2023-01-28T02:19:00.563Z,88.82
2023-01-28T02:21:33.672Z,88.57
2023-01-28T02:24:03.930Z,89.11
2023-01-28T02:26:40.324Z,89.15
2023-01-28T02:29:27.141Z,89.19
2023-01-28T02:32:03.658Z,89.67
2023-01-28T02:34:58.556Z,89.93
2023-01-28T02:37:34.074Z,90.44
2023-01-28T02:40:16.638Z,90.57
2023-01-28T02:42:45.241Z,90.82
2023-01-28T02:45:20.413Z,91.41
2023-01-28T02:47:59.921Z,90.99
2023-01-28T02:51:11.705Z,91.46
2023-01-28T02:53:47.360Z,91.18
2023-01-28T02:56:14.778Z,91.68
2023-01-28T02:58:53.652Z,91.54
2023-01-28T03:01:39.309Z,92.01
2023-01-28T03:04:47.986Z,92.95
2023-01-28T03:07:17.777Z,92.83
2023-01-28T03:09:47.934Z,93.34
2023-01-28T03:12:44.060Z,93.81
2023-01-28T03:15:35.937Z,94.81
2023-01-28T03:18:45.447Z,95.17
2023-01-28T03:21:36.066Z,95.23
2023-01-28T03:24:44.528Z,95.47
2023-01-28T03:27:42.840Z,95.65
2023-01-28T03:30:36.958Z,95.83
2023-01-28T03:33:29.298Z,95.58
2023-01-28T03:36:15.120Z,95.74
2023-01-28T03:38:43.707Z,96.14
2023-01-28T03:41:21.929Z,96.08
2023-01-28T03:43:50.236Z,96.48
2023-01-28T03:46:18.583Z,95.98
2023-01-28T03:48:46.385Z,96.26
2023-01-28T03:51:15.556Z,96.14
2023-01-28T03:53:42.848Z,96.01
2023-01-28T03:56:18.204Z,95.62
2023-01-28T03:58:56.764Z,95.65
2023-01-28T04:01:25.490Z,95.54
2023-01-28T04:03:53.182Z,95.96
2023-01-28T04:06:26.295Z,95.98
2023-01-28T04:08:54.563Z,96.31
2023-01-28T04:11:33.313Z,96.11
2023-01-28T04:14:05.463Z,96.21
2023-01-28T04:16:59.370Z,96.82
2023-01-28T04:19:27.092Z,96.70
2023-01-28T04:21:55.779Z,96.59
2023-01-28T04:24:24.618Z,96.82
2023-01-28T04:26:51.996Z,96.82
2023-01-28T04:29:19.687Z,97.25
2023-01-28T04:31:47.382Z,97.02
2023-01-28T04:34:43.744Z,97.09
2023-01-28T04:37:17.154Z,97.39
2023-01-28T04:39:55.876Z,97.24
2023-01-28T04:42:41.422Z,97.49
2023-01-28T04:45:17.321Z,97.75
2023-01-28T04:47:58.708Z,97.94
2023-01-28T04:50:47.259Z,98.43
2023-01-28T04:53:19.619Z,98.18
2023-01-28T04:56:01.192Z,98.38
2023-01-28T04:58:31.788Z,98.54
2023-01-28T05:01:03.475Z,98.64
2023-01-28T05:03:31.492Z,98.80
2023-01-28T05:05:59.030Z,98.32
2023-01-28T05:08:39.384Z,98.57
2023-01-28T05:11:06.611Z,98.70
2023-01-28T05:13:34.020Z,98.29
2023-01-28T05:16:01.360Z,98.29
2023-01-28T05:18:28.657Z,98.47
2023-01-28T05:21:06.087Z,98.04
2023-01-28T05:23:35.757Z,97.85
2023-01-28T05:26:03.654Z,97.69
2023-01-28T05:28:30.967Z,98.08
2023-01-28T05:31:08.654Z,97.73
2023-01-28T05:33:35.929Z,97.71
2023-01-28T05:36:05.734Z,97.74
2023-01-28T05:38:33.060Z,98.21
2023-01-28T05:41:00.353Z,97.83
2023-01-28T05:43:28.769Z,97.73
2023-01-28T05:46:15.058Z,97.60
2023-01-28T05:49:00.715Z,97.68
2023-01-28T05:51:48.387Z,97.42
2023-01-28T05:54:19.072Z,97.56
2023-01-28T05:56:47.486Z,97.46
2023-01-28T05:59:15.101Z,97.73
2023-01-28T06:01:44.225Z,97.60
2023-01-28T06:04:11.547Z,97.17
2023-01-28T06:06:39.802Z,97.20
2023-01-28T06:09:07.074Z,97.19
2023-01-28T06:11:35.434Z,97.40
2023-01-28T06:14:04.751Z,97.04
2023-01-28T06:16:52.279Z,97.18
2023-01-28T06:19:38.055Z,97.13
2023-01-28T06:22:06.605Z,97.13
2023-01-28T06:24:34.011Z,97.28
2023-01-28T06:27:01.481Z,97.01
2023-01-28T06:29:29.135Z,97.24
2023-01-28T06:31:56.412Z,97.01
2023-01-28T06:34:23.707Z,96.63
2023-01-28T06:36:53.215Z,96.51
2023-01-28T06:39:22.256Z,96.26
2023-01-28T06:41:50.552Z,96.28
2023-01-28T06:44:17.896Z,96.14
2023-01-28T06:46:45.344Z,96.16
2023-01-28T06:49:12.648Z,95.72
2023-01-28T06:51:39.960Z,95.38
2023-01-28T06:54:07.377Z,95.30
2023-01-28T06:56:34.595Z,95.47
2023-01-28T06:59:01.967Z,94.94
2023-01-28T07:01:29.271Z,94.98
2023-01-28T07:03:56.685Z,94.68
2023-01-28T07:06:24.273Z,94.44
2023-01-28T07:08:51.468Z,94.59
2023-01-28T07:11:18.770Z,94.38
2023-01-28T07:13:47.493Z,94.70
2023-01-28T07:16:14.807Z,93.83
2023-01-28T07:18:42.136Z,93.99
2023-01-28T07:21:09.352Z,94.10
2023-01-28T07:23:36.683Z,94.19
2023-01-28T07:26:04.450Z,93.64
2023-01-28T07:28:31.910Z,94.09
2023-01-28T07:30:59.117Z,93.67
2023-01-28T07:33:26.351Z,93.69
2023-01-28T07:35:53.631Z,93.70
2023-01-28T07:38:20.907Z,93.17
2023-01-28T07:40:48.342Z,92.87
2023-01-28T07:43:15.858Z,93.56
2023-01-28T07:45:43.350Z,93.10
2023-01-28T07:48:13.858Z,92.57
2023-01-28T07:50:41.241Z,92.21
2023-01-28T07:53:10.902Z,92.07
2023-01-28T07:55:39.029Z,92.19
2023-01-28T07:58:07.800Z,92.01
2023-01-28T08:00:36.990Z,91.90
2023-01-28T08:03:07.557Z,92.03
2023-01-28T08:06:00.972Z,91.37
2023-01-28T08:08:28.251Z,92.07
2023-01-28T08:10:55.695Z,91.87
2023-01-28T08:13:22.917Z,91.77
2023-01-28T08:15:50.183Z,91.96
2023-01-28T08:18:17.607Z,91.50
2023-01-28T08:20:47.222Z,90.93
2023-01-28T08:23:19.521Z,91.18
2023-01-28T08:25:47.771Z,91.08
2023-01-28T08:28:16.831Z,90.97
2023-01-28T08:30:44.200Z,91.18
2023-01-28T08:33:13.610Z,90.59
2023-01-28T08:35:41.578Z,90.25
2023-01-28T08:38:09.448Z,90.03
2023-01-28T08:40:36.935Z,88.94
2023-01-28T08:43:04.846Z,89.00
2023-01-28T08:45:32.578Z,89.31
2023-01-28T08:48:05.510Z,88.90
2023-01-28T08:50:37.744Z,89.18
2023-01-28T08:53:08.495Z,88.43
2023-01-28T08:55:35.872Z,88.24
2023-01-28T08:58:05.560Z,88.78
2023-01-28T09:00:33.955Z,88.29
2023-01-28T09:03:02.691Z,88.72
2023-01-28T09:05:33.090Z,87.47
2023-01-28T09:08:05.749Z,87.31
2023-01-28T09:10:33.192Z,86.80
2023-01-28T09:13:08.968Z,86.30
2023-01-28T09:15:36.689Z,86.29
2023-01-28T09:18:05.363Z,86.25
2023-01-28T09:20:33.281Z,86.12
2023-01-28T09:23:02.196Z,86.41
2023-01-28T09:25:30.249Z,85.98
2023-01-28T09:27:58.456Z,85.99
2023-01-28T09:30:26.185Z,86.32
2023-01-28T09:32:55.102Z,85.14
2023-01-28T09:35:22.895Z,85.93
2023-01-28T09:37:50.647Z,85.07
2023-01-28T09:40:18.131Z,85.31
2023-01-28T09:42:51.446Z,85.54
2023-01-28T09:45:42.504Z,85.63
2023-01-28T09:48:22.347Z,84.69
2023-01-28T09:50:52.561Z,85.38
2023-01-28T09:53:23.728Z,84.76
2023-01-28T09:55:57.102Z,85.46
2023-01-28T09:58:24.384Z,85.91
2023-01-28T10:01:10.284Z,84.95
2023-01-28T10:04:05.931Z,85.49
2023-01-28T10:06:39.126Z,85.61
2023-01-28T10:09:41.330Z,85.70
2023-01-28T10:12:22.992Z,84.91
2023-01-28T10:14:50.619Z,85.05
2023-01-28T10:17:26.014Z,84.14
2023-01-28T10:19:58.890Z,84.66
2023-01-28T10:22:31.873Z,84.23
2023-01-28T10:25:06.883Z,84.43
2023-01-28T10:27:36.045Z,84.29
2023-01-28T10:30:21.825Z,84.69
2023-01-28T10:33:05.061Z,83.54
2023-01-28T10:35:38.694Z,83.73
2023-01-28T10:38:09.210Z,84.48
2023-01-28T10:40:42.541Z,83.71
2023-01-28T10:43:10.024Z,82.96
2023-01-28T10:45:55.428Z,83.38
2023-01-28T10:48:57.953Z,82.98
2023-01-28T10:51:39.610Z,83.59
2023-01-28T10:54:20.559Z,83.95
2023-01-28T10:56:51.830Z,82.47
2023-01-28T10:59:23.610Z,82.83
2023-01-28T11:01:54.390Z,83.37
2023-01-28T11:04:31.146Z,82.42
2023-01-28T11:07:25.945Z,82.22
2023-01-28T11:09:53.534Z,83.16
2023-01-28T11:12:27.905Z,82.41
2023-01-28T11:15:02.008Z,81.98
2023-01-28T11:17:35.713Z,82.61
2023-01-28T11:20:19.866Z,81.36
2023-01-28T11:22:48.512Z,81.85
2023-01-28T11:25:23.650Z,82.56
2023-01-28T11:27:53.808Z,82.11
2023-01-28T11:30:23.262Z,82.24
2023-01-28T11:33:08.307Z,82.32
2023-01-28T11:35:35.595Z,81.96
2023-01-28T11:38:03.052Z,83.00
2023-01-28T11:40:30.441Z,82.59
2023-01-28T11:42:58.377Z,82.68
2023-01-28T11:46:02.627Z,81.79
2023-01-28T11:48:58.119Z,81.79
2023-01-28T11:51:48.500Z,81.90
2023-01-28T11:54:29.012Z,82.12
2023-01-28T11:57:23.628Z,82.68
2023-01-28T12:00:26.289Z,82.91
2023-01-28T12:03:11.971Z,84.78
2023-01-28T12:05:49.508Z,83.50
2023-01-28T12:08:23.459Z,83.45
2023-01-28T12:11:10.918Z,83.13
2023-01-28T12:13:49.808Z,82.87
2023-01-28T12:16:32.252Z,83.49
2023-01-28T12:19:25.864Z,81.43
2023-01-28T12:22:03.975Z,81.53
2023-01-28T12:25:16.449Z,81.33
2023-01-28T12:28:05.212Z,81.84
2023-01-28T12:30:51.215Z,80.27
2023-01-28T12:33:36.787Z,81.18
2023-01-28T12:36:19.580Z,81.06
2023-01-28T12:39:03.000Z,81.50
2023-01-28T12:41:53.241Z,80.27
2023-01-28T12:44:23.036Z,81.49
2023-01-28T12:46:55.787Z,80.92
2023-01-28T12:49:30.384Z,80.43
2023-01-28T12:52:01.754Z,80.84
2023-01-28T12:54:31.715Z,81.27
2023-01-28T12:56:59.596Z,82.01
2023-01-28T12:59:38.731Z,81.71
2023-01-28T13:02:11.939Z,81.50
2023-01-28T13:04:42.999Z,81.66
2023-01-28T13:07:49.239Z,82.00
2023-01-28T13:10:24.018Z,82.65
2023-01-28T13:12:52.103Z,81.37
2023-01-28T13:15:20.076Z,81.53
2023-01-28T13:17:54.657Z,81.71
2023-01-28T13:20:50.659Z,82.43
2023-01-28T13:23:39.751Z,81.81
2023-01-28T13:26:22.419Z,82.58
2023-01-28T13:28:52.718Z,82.20
2023-01-28T13:31:22.842Z,82.80
2023-01-28T13:33:56.486Z,82.76
2023-01-28T13:36:33.439Z,83.28
2023-01-28T13:39:02.043Z,82.59
2023-01-28T13:41:42.146Z,83.37
2023-01-28T13:44:18.440Z,83.86
2023-01-28T13:46:46.021Z,83.87
2023-01-28T13:49:18.974Z,84.20
2023-01-28T13:51:59.011Z,84.30
2023-01-28T13:54:28.707Z,84.88
2023-01-28T13:56:58.863Z,84.41
2023-01-28T13:59:32.273Z,84.57
2023-01-28T14:02:11.738Z,84.45
2023-01-28T14:04:42.102Z,84.91
2023-01-28T14:07:36.814Z,84.97
2023-01-28T14:10:25.963Z,84.92
2023-01-28T14:13:14.665Z,85.43
2023-01-28T14:15:52.009Z,85.79
2023-01-28T14:18:35.272Z,85.50
2023-01-28T14:21:11.531Z,85.92
2023-01-28T14:23:45.487Z,85.36
2023-01-28T14:26:32.794Z,85.64
2023-01-28T14:29:12.923Z,86.28
2023-01-28T14:31:40.478Z,86.81
2023-01-28T14:34:13.734Z,86.49
2023-01-28T14:36:44.351Z,85.91
2023-01-28T14:39:17.841Z,86.78
2023-01-28T14:41:48.854Z,86.85
2023-01-28T14:44:38.068Z,86.44
2023-01-28T14:47:35.364Z,86.76
2023-01-28T14:50:14.898Z,87.64
2023-01-28T14:53:00.843Z,87.15
2023-01-28T14:55:46.791Z,87.10
2023-01-28T14:58:26.852Z,87.38
2023-01-28T15:00:59.365Z,87.32
2023-01-28T15:03:28.462Z,87.35
2023-01-28T15:06:34.377Z,87.81
2023-01-28T15:09:13.112Z,87.75
2023-01-28T15:11:44.572Z,87.86
2023-01-28T15:14:32.239Z,88.07
2023-01-28T15:17:01.256Z,88.68
2023-01-28T15:19:35.224Z,88.14
2023-01-28T15:22:05.867Z,88.61
2023-01-28T15:24:37.096Z,88.52
2023-01-28T15:27:04.462Z,88.26
2023-01-28T15:29:36.619Z,88.17
2023-01-28T15:32:05.638Z,88.43
2023-01-28T15:34:32.912Z,88.63
2023-01-28T15:37:01.269Z,88.93
2023-01-28T15:39:29.801Z,88.75
2023-01-28T15:42:06.682Z,88.84
2023-01-28T15:44:44.105Z,88.80
2023-01-28T15:47:30.857Z,89.17
2023-01-28T15:50:01.583Z,89.16
2023-01-28T15:52:43.089Z,89.07
2023-01-28T15:55:31.863Z,89.46
2023-01-28T15:58:19.074Z,89.14
2023-01-28T16:00:47.973Z,89.57
2023-01-28T16:03:23.383Z,89.64
2023-01-28T16:06:02.198Z,90.14
2023-01-28T16:08:40.972Z,90.10
2023-01-28T16:11:10.194Z,89.92
2023-01-28T16:13:43.305Z,90.02
2023-01-28T16:16:11.705Z,90.01
2023-01-28T16:18:51.896Z,90.36
2023-01-28T16:21:24.274Z,90.30
2023-01-28T16:24:23.862Z,90.37
2023-01-28T16:27:01.847Z,90.51
2023-01-28T16:29:31.131Z,90.57
2023-01-28T16:32:00.133Z,90.68
2023-01-28T16:34:27.704Z,91.26
2023-01-28T16:37:01.894Z,91.25
2023-01-28T16:39:30.343Z,91.11
2023-01-28T16:41:58.410Z,91.37
2023-01-28T16:44:25.676Z,91.43
2023-01-28T16:46:53.056Z,91.65
2023-01-28T16:49:20.315Z,91.81
2023-01-28T16:51:47.630Z,92.11
2023-01-28T16:54:16.627Z,91.88
2023-01-28T16:56:46.306Z,91.98
2023-01-28T16:59:16.250Z,91.94
2023-01-28T17:01:44.738Z,92.12
2023-01-28T17:04:13.127Z,92.14
2023-01-28T17:06:43.663Z,92.30
2023-01-28T17:09:13.443Z,92.64
2023-01-28T17:11:41.123Z,92.44
2023-01-28T17:14:09.873Z,92.38
2023-01-28T17:16:37.635Z,92.54
2023-01-28T17:19:05.372Z,93.20
2023-01-28T17:21:32.691Z,92.94
2023-01-28T17:24:01.220Z,93.31
2023-01-28T17:26:32.141Z,92.89
2023-01-28T17:28:59.418Z,93.30
2023-01-28T17:31:27.172Z,93.34
2023-01-28T17:33:56.490Z,92.89
2023-01-28T17:36:25.374Z,93.49
2023-01-28T17:38:53.096Z,93.16
2023-01-28T17:41:21.059Z,93.40
2023-01-28T17:43:55.697Z,93.36
2023-01-28T17:46:24.863Z,93.68
2023-01-28T17:48:52.631Z,93.68
2023-01-28T17:51:20.076Z,93.63
2023-01-28T17:53:52.126Z,93.99
2023-01-28T17:56:22.616Z,93.76
2023-01-28T17:58:55.201Z,94.17
2023-01-28T18:01:24.419Z,94.11
2023-01-28T18:03:52.107Z,93.71
2023-01-28T18:06:19.625Z,93.91
2023-01-28T18:08:46.896Z,94.08
2023-01-28T18:11:16.717Z,93.94
2023-01-28T18:13:44.354Z,94.24
2023-01-28T18:16:15.651Z,93.68
2023-01-28T18:18:43.957Z,93.71
2023-01-28T18:21:53.514Z,93.98
2023-01-28T18:24:25.822Z,93.76
2023-01-28T18:26:55.554Z,94.07
2023-01-28T18:29:24.205Z,94.12
2023-01-28T18:31:54.442Z,93.85
2023-01-28T18:34:27.670Z,94.21
2023-01-28T18:36:54.987Z,93.96
2023-01-28T18:39:23.360Z,94.37
2023-01-28T18:41:54.171Z,94.28
2023-01-28T18:44:23.215Z,93.91
2023-01-28T18:46:51.632Z,93.98
2023-01-28T18:49:19.449Z,94.21
2023-01-28T18:51:47.094Z,94.05
2023-01-28T18:54:15.957Z,94.13
2023-01-28T18:56:44.311Z,93.96
2023-01-28T18:59:14.061Z,93.95
2023-01-28T19:01:42.829Z,94.31
2023-01-28T19:04:10.675Z,94.18
2023-01-28T19:06:38.090Z,94.26
2023-01-28T19:09:07.138Z,94.16
2023-01-28T19:11:35.508Z,94.21
2023-01-28T19:14:02.877Z,94.09
2023-01-28T19:16:30.724Z,94.50
2023-01-28T19:19:00.372Z,94.68
2023-01-28T19:21:29.720Z,94.60
2023-01-28T19:23:59.414Z,94.88
2023-01-28T19:26:28.559Z,94.95
2023-01-28T19:28:56.572Z,94.89
2023-01-28T19:31:25.093Z,94.82
2023-01-28T19:33:58.278Z,94.85
2023-01-28T19:36:28.100Z,95.05
2023-01-28T19:38:59.892Z,95.13
2023-01-28T19:41:28.443Z,95.26
2023-01-28T19:43:57.080Z,94.97
2023-01-28T19:46:25.506Z,95.39
2023-01-28T19:48:53.133Z,94.97
2023-01-28T19:51:21.521Z,95.05
2023-01-28T19:53:54.003Z,95.11
2023-01-28T19:56:23.490Z,94.75
2023-01-28T19:58:53.549Z,94.83
2023-01-28T20:01:29.946Z,94.82
2023-01-28T20:03:59.524Z,95.26
2023-01-28T20:06:31.224Z,95.12
2023-01-28T20:09:01.855Z,95.06
2023-01-28T20:11:29.283Z,94.78
2023-01-28T20:13:56.611Z,94.78
2023-01-28T20:16:35.066Z,95.05
2023-01-28T20:19:06.649Z,94.87
2023-01-28T20:21:35.257Z,94.36
2023-01-28T20:24:03.297Z,94.62
2023-01-28T20:26:33.083Z,94.55
2023-01-28T20:29:09.015Z,94.55
2023-01-28T20:31:37.386Z,94.44
2023-01-28T20:34:04.696Z,94.56
2023-01-28T20:36:32.116Z,94.59
2023-01-28T20:38:59.819Z,94.58
2023-01-28T20:41:27.650Z,94.70
2023-01-28T20:43:55.919Z,94.47
2023-01-28T20:46:27.876Z,94.35
2023-01-28T20:48:57.367Z,94.18
2023-01-28T20:51:27.940Z,94.40
2023-01-28T20:53:56.242Z,94.41
2023-01-28T20:56:25.213Z,94.65
2023-01-28T20:59:06.119Z,94.32
2023-01-28T21:01:35.517Z,94.59
2023-01-28T21:04:05.006Z,94.46
2023-01-28T21:06:32.717Z,94.26
2023-01-28T21:09:03.303Z,94.34
2023-01-28T21:11:30.859Z,94.62
2023-01-28T21:13:58.413Z,94.61
2023-01-28T21:16:25.708Z,94.67
2023-01-28T21:18:52.938Z,94.80
2023-01-28T21:21:26.913Z,94.23
2023-01-28T21:23:56.885Z,94.62
2023-01-28T21:26:24.292Z,94.43
2023-01-28T21:28:51.666Z,94.64
2023-01-28T21:31:21.947Z,94.67
2023-01-28T21:33:50.412Z,94.70
2023-01-28T21:36:19.258Z,94.59
2023-01-28T21:38:57.523Z,94.46
2023-01-28T21:41:25.335Z,94.59
2023-01-28T21:43:53.954Z,94.70
2023-01-28T21:46:22.595Z,94.78
2023-01-28T21:48:54.296Z,95.04
2023-01-28T21:51:38.064Z,94.74
2023-01-28T21:54:12.899Z,94.86
2023-01-28T21:56:41.489Z,94.63
2023-01-28T21:59:28.347Z,94.89
2023-01-28T22:01:58.245Z,94.99
2023-01-28T22:04:29.620Z,95.21
2023-01-28T22:06:57.611Z,95.07
2023-01-28T22:09:25.783Z,94.97
2023-01-28T22:11:53.124Z,94.79
2023-01-28T22:14:20.681Z,94.91
2023-01-28T22:16:48.264Z,94.97
2023-01-28T22:19:15.914Z,95.07
2023-01-28T22:21:45.860Z,95.31
2023-01-28T22:24:14.748Z,94.81
2023-01-28T22:26:43.120Z,94.71
2023-01-28T22:29:12.020Z,94.78
2023-01-28T22:31:39.557Z,94.60
2023-01-28T22:34:07.502Z,94.58
2023-01-28T22:36:35.480Z,94.75
2023-01-28T22:39:04.563Z,94.49
2023-01-28T22:41:32.637Z,94.71
2023-01-28T22:44:01.665Z,94.62
2023-01-28T22:46:28.951Z,94.82
2023-01-28T22:48:56.351Z,94.35
2023-01-28T22:51:32.468Z,94.23
2023-01-28T22:53:59.764Z,94.51
2023-01-28T22:56:29.110Z,94.29
2023-01-28T22:58:57.864Z,94.73
2023-01-28T23:01:25.662Z,94.13
2023-01-28T23:03:53.395Z,94.59
2023-01-28T23:06:22.292Z,94.19
2023-01-28T23:08:49.887Z,94.15
2023-01-28T23:11:25.117Z,94.46
2023-01-28T23:14:13.643Z,94.16
2023-01-28T23:16:59.886Z,94.47
2023-01-28T23:19:46.242Z,94.02
2023-01-28T23:22:40.611Z,93.98
2023-01-28T23:25:08.719Z,93.92
2023-01-28T23:27:36.325Z,93.74
2023-01-28T23:30:05.749Z,94.08
2023-01-28T23:32:32.969Z,93.74
2023-01-28T23:35:00.248Z,93.73
2023-01-28T23:37:27.591Z,93.74
2023-01-28T23:39:54.847Z,93.58
2023-01-28T23:42:23.583Z,93.72
2023-01-28T23:44:50.813Z,93.61
2023-01-28T23:47:18.419Z,93.85
2023-01-28T23:49:45.878Z,93.85
2023-01-28T23:52:13.159Z,93.66
2023-01-28T23:54:40.637Z,93.59
2023-01-28T23:57:08.599Z,94.01
2023-01-28T23:59:36.683Z,93.75
